createdAt,value
2022-08-01T00:03:53.601Z,101684.91
2022-08-01T00:08:57.977Z,101683.84
2022-08-01T00:14:00.733Z,101664.75
2022-08-01T00:19:03.687Z,101674.13
2022-08-01T00:24:08.515Z,101680.50
2022-08-01T00:30:12.761Z,101683.47
2022-08-01T00:34:41.112Z,101670.28
2022-08-01T00:39:45.631Z,101684.00
2022-08-01T00:44:48.659Z,101679.63
2022-08-01T00:49:51.614Z,101681.28
2022-08-01T00:54:55.881Z,101684.59
2022-08-01T00:59:59.552Z,101689.03
2022-08-01T01:05:03.034Z,101694.97
2022-08-01T01:10:16.362Z,101679.22
2022-08-01T01:15:24.005Z,101676.56
2022-08-01T01:20:30.528Z,101682.88
2022-08-01T01:25:57.124Z,101680.06
2022-08-01T01:31:02.558Z,101681.50
2022-08-01T01:36:11.837Z,101693.19
2022-08-01T01:41:16.656Z,101693.53
2022-08-01T01:46:24.225Z,101688.25
2022-08-01T01:51:29.694Z,101685.03
2022-08-01T01:56:33.118Z,101692.19
2022-08-01T02:01:58.841Z,101690.19
2022-08-01T02:07:01.229Z,101702.41
2022-08-01T02:12:08.813Z,101696.34
2022-08-01T02:17:14.612Z,101697.63
2022-08-01T02:22:22.398Z,101705.06
2022-08-01T02:27:27.393Z,101702.72
2022-08-01T02:32:55.143Z,101718.53
2022-08-01T02:38:00.016Z,101714.44
2022-08-01T02:43:04.793Z,101730.91
2022-08-01T02:48:16.176Z,101725.59
2022-08-01T02:53:21.391Z,101722.25
2022-08-01T02:58:29.335Z,101714.09
2022-08-01T03:03:34.850Z,101716.66
2022-08-01T03:08:38.482Z,101718.44
2022-08-01T03:13:42.659Z,101717.38
2022-08-01T03:18:47.572Z,101719.22
2022-08-01T03:23:55.313Z,101726.25
2022-08-01T03:29:01.506Z,101724.53
2022-08-01T03:34:06.217Z,101729.91
2022-08-01T03:39:11.360Z,101733.41
2022-08-01T03:44:16.671Z,101746.66
2022-08-01T03:49:24.493Z,101746.59
2022-08-01T03:54:31.005Z,101759.34
2022-08-01T03:59:34.350Z,101762.72
2022-08-01T04:04:38.684Z,101773.19
2022-08-01T04:09:41.532Z,101766.25
2022-08-01T04:14:46.454Z,101740.69
2022-08-01T04:19:50.587Z,101772.19
2022-08-01T04:24:57.100Z,101772.28
2022-08-01T04:30:01.178Z,101765.38
2022-08-01T04:35:23.449Z,101767.47
2022-08-01T04:40:32.104Z,101771.00
2022-08-01T04:45:35.221Z,101784.09
2022-08-01T04:50:39.457Z,101785.31
2022-08-01T04:55:42.490Z,101796.47
2022-08-01T05:00:45.362Z,101787.47
2022-08-01T05:05:49.728Z,101785.97
2022-08-01T05:10:53.733Z,101786.81
2022-08-01T05:16:08.212Z,101793.03
2022-08-01T05:21:12.649Z,101789.13
2022-08-01T05:26:15.701Z,101790.63
2022-08-01T05:31:18.733Z,101799.63
2022-08-01T05:36:22.929Z,101809.06
2022-08-01T05:41:25.924Z,101810.00
2022-08-01T05:46:28.828Z,101812.06
2022-08-01T05:51:33.227Z,101822.75
2022-08-01T05:56:36.073Z,101816.72
2022-08-01T06:01:39.155Z,101823.56
2022-08-01T06:06:43.567Z,101831.53
2022-08-01T06:11:46.473Z,101831.25
2022-08-01T06:16:49.500Z,101829.81
2022-08-01T06:21:55.015Z,101839.44
2022-08-01T06:26:57.843Z,101830.44
2022-08-01T06:32:00.753Z,101818.13
2022-08-01T06:37:06.867Z,101827.53
2022-08-01T06:42:10.510Z,101827.97
2022-08-01T06:47:13.422Z,101834.44
2022-08-01T06:52:17.958Z,101842.47
2022-08-01T06:57:20.778Z,101764.88
2022-08-01T07:02:23.700Z,101840.53
2022-08-01T07:07:27.905Z,101841.66
2022-08-01T07:12:30.942Z,101834.28
2022-08-01T07:17:34.032Z,101839.91
2022-08-01T07:22:38.401Z,101831.38
2022-08-01T07:27:41.308Z,101842.44
2022-08-01T07:32:44.138Z,101850.63
2022-08-01T07:37:49.464Z,101852.47
2022-08-01T07:42:52.516Z,101853.44
2022-08-01T07:47:56.548Z,101865.31
2022-08-01T07:53:00.790Z,101872.53
2022-08-01T07:58:03.616Z,101840.84
2022-08-01T08:03:06.464Z,101850.72
2022-08-01T08:08:11.241Z,101857.69
2022-08-01T08:13:14.174Z,101858.44
2022-08-01T08:18:16.977Z,101852.56
2022-08-01T08:23:42.519Z,101864.25
2022-08-01T08:28:46.147Z,101876.75
2022-08-01T08:33:48.912Z,101871.53
2022-08-01T08:38:53.329Z,101883.53
2022-08-01T08:44:04.797Z,101877.06
2022-08-01T08:49:16.725Z,101873.00
2022-08-01T08:54:27.725Z,101887.25
2022-08-01T08:59:35.077Z,101887.22
2022-08-01T09:04:41.237Z,101886.66
2022-08-01T09:09:45.614Z,101883.94
2022-08-01T09:14:54.374Z,101888.28
2022-08-01T09:19:59.144Z,101881.75
2022-08-01T09:25:07.947Z,101881.97
2022-08-01T09:30:13.016Z,101879.44
2022-08-01T09:35:30.002Z,101902.13
2022-08-01T09:40:47.964Z,101896.13
2022-08-01T09:45:55.267Z,101909.78
2022-08-01T09:51:09.386Z,101909.75
2022-08-01T09:56:15.191Z,101899.38
2022-08-01T10:01:21.407Z,101890.59
2022-08-01T10:06:27.198Z,101909.28
2022-08-01T10:11:36.499Z,101918.19
2022-08-01T10:16:41.684Z,101908.81
2022-08-01T10:21:58.001Z,101913.78
2022-08-01T10:27:12.368Z,101905.28
2022-08-01T10:32:15.813Z,101922.47
2022-08-01T10:37:27.542Z,101922.06
2022-08-01T10:42:32.702Z,101913.19
2022-08-01T10:47:50.705Z,101929.72
2022-08-01T10:53:31.892Z,101924.53
2022-08-01T10:58:49.461Z,101933.66
2022-08-01T11:04:01.871Z,101910.13
2022-08-01T11:09:07.822Z,101938.66
2022-08-01T11:14:13.469Z,101941.91
2022-08-01T11:19:17.468Z,101949.81
2022-08-01T11:24:58.941Z,101906.97
2022-08-01T11:30:27.041Z,101945.13
2022-08-01T11:35:30.810Z,101942.19
2022-08-01T11:40:33.676Z,101928.25
2022-08-01T11:45:51.217Z,101939.50
2022-08-01T11:50:56.173Z,101937.81
2022-08-01T11:56:00.590Z,101938.56
2022-08-01T12:01:04.835Z,101940.47
2022-08-01T12:06:09.972Z,101941.91
2022-08-01T12:11:12.991Z,101950.72
2022-08-01T12:16:18.111Z,101952.97
2022-08-01T12:21:23.708Z,101957.69
2022-08-01T12:26:41.076Z,101951.53
2022-08-01T12:31:45.200Z,101956.47
2022-08-01T12:37:17.651Z,101949.00
2022-08-01T12:42:20.822Z,101953.31
2022-08-01T12:47:25.833Z,101958.97
2022-08-01T12:52:28.732Z,101952.38
2022-08-01T12:57:43.324Z,101955.53
2022-08-01T13:02:49.950Z,101960.69
2022-08-01T13:07:53.333Z,101950.75
2022-08-01T13:12:57.750Z,101945.22
2022-08-01T13:18:03.446Z,101947.31
2022-08-01T13:23:14.995Z,101927.22
2022-08-01T13:28:19.105Z,101935.25
2022-08-01T13:33:23.537Z,101923.19
2022-08-01T13:38:45.946Z,101921.00
2022-08-01T13:43:58.732Z,101914.28
2022-08-01T13:49:15.946Z,101908.81
2022-08-01T13:54:19.606Z,101901.47
2022-08-01T13:59:24.620Z,101909.59
2022-08-01T14:04:28.862Z,101901.25
2022-08-01T14:09:32.592Z,101893.72
2022-08-01T14:14:35.581Z,101902.88
2022-08-01T14:19:43.359Z,101904.56
2022-08-01T14:24:50.063Z,101899.53
2022-08-01T14:30:03.315Z,101897.97
2022-08-01T14:35:09.320Z,101899.84
2022-08-01T14:40:12.519Z,101899.56
2022-08-01T14:45:15.801Z,101896.25
2022-08-01T14:50:20.015Z,101894.69
2022-08-01T14:55:26.000Z,101899.63
2022-08-01T15:00:28.994Z,101911.47
2022-08-01T15:05:33.863Z,101907.63
2022-08-01T15:10:36.766Z,101889.53
2022-08-01T15:15:42.589Z,101907.78
2022-08-01T15:20:48.448Z,101906.31
2022-08-01T15:25:51.360Z,101922.66
2022-08-01T15:30:54.196Z,101914.97
2022-08-01T15:35:58.301Z,101908.97
2022-08-01T15:41:01.661Z,101915.63
2022-08-01T15:46:05.928Z,101903.78
2022-08-01T15:51:10.184Z,101902.72
2022-08-01T15:56:12.971Z,101897.06
2022-08-01T16:01:17.882Z,101894.38
2022-08-01T16:06:22.210Z,101896.09
2022-08-01T16:11:27.821Z,101897.72
2022-08-01T16:16:35.010Z,101890.94
2022-08-01T16:21:39.157Z,101900.28
2022-08-01T16:26:43.144Z,101873.66
2022-08-01T16:31:55.733Z,101905.69
2022-08-01T16:37:10.288Z,101893.38
2022-08-01T16:42:13.085Z,101888.41
2022-08-01T16:47:15.879Z,101863.88
2022-08-01T16:52:20.053Z,101894.97
2022-08-01T16:57:22.848Z,101873.31
2022-08-01T17:02:25.730Z,101901.31
2022-08-01T17:07:30.052Z,101882.56
2022-08-01T17:12:35.398Z,101886.13
2022-08-01T17:17:41.109Z,101889.97
2022-08-01T17:22:49.947Z,101897.09
2022-08-01T17:27:53.827Z,101899.69
2022-08-01T17:32:56.740Z,101897.00
2022-08-01T17:38:01.044Z,101894.69
2022-08-01T17:43:03.865Z,101915.81
2022-08-01T17:48:16.071Z,101908.06
2022-08-01T17:53:24.073Z,101914.25
2022-08-01T17:58:49.549Z,101912.38
2022-08-01T18:03:50.146Z,101912.03
2022-08-01T18:08:59.837Z,101906.38
2022-08-01T18:14:07.389Z,101901.59
2022-08-01T18:19:10.202Z,101910.03
2022-08-01T18:29:23.284Z,101901.38
2022-08-01T18:34:44.599Z,101906.25
2022-08-01T18:39:50.284Z,101904.59
2022-08-01T18:44:55.250Z,101904.13
2022-08-01T18:49:58.142Z,101913.88
2022-08-01T18:55:02.381Z,101919.78
2022-08-01T19:00:07.380Z,101917.41
2022-08-01T19:05:10.817Z,101917.81
2022-08-01T19:10:17.153Z,101917.63
2022-08-01T19:15:20.332Z,101927.56
2022-08-01T19:20:25.578Z,101930.63
2022-08-01T19:25:29.749Z,101925.69
2022-08-01T19:30:33.871Z,101919.03
2022-08-01T19:35:37.391Z,101929.69
2022-08-01T19:40:41.829Z,101926.38
2022-08-01T19:45:48.561Z,101922.66
2022-08-01T19:50:52.525Z,101882.34
2022-08-01T19:55:57.140Z,101932.88
2022-08-01T20:00:59.959Z,101933.41
2022-08-01T20:06:05.940Z,101936.06
2022-08-01T20:11:18.853Z,101940.06
2022-08-01T20:16:25.560Z,101938.53
2022-08-01T20:21:29.074Z,101946.44
2022-08-01T20:26:33.918Z,101942.41
2022-08-01T20:31:43.817Z,101908.13
2022-08-01T20:36:56.628Z,101935.44
2022-08-01T20:42:02.642Z,101918.06
2022-08-01T20:47:06.072Z,101932.56
2022-08-01T20:52:12.107Z,101930.19
2022-08-01T20:57:25.274Z,101946.41
2022-08-01T21:02:34.223Z,101944.47
2022-08-01T21:07:40.386Z,101952.50
2022-08-01T21:12:49.666Z,101945.53
2022-08-01T21:18:00.299Z,101937.38
2022-08-01T21:23:16.062Z,101922.28
2022-08-01T21:28:22.055Z,101936.16
2022-08-01T21:33:25.588Z,101926.50
2022-08-01T21:38:31.996Z,101927.94
2022-08-01T21:43:38.688Z,101915.81
2022-08-01T21:48:42.491Z,101911.59
2022-08-01T21:53:50.226Z,101916.91
2022-08-01T21:58:59.404Z,101914.81
2022-08-01T22:04:04.594Z,101915.91
2022-08-01T22:09:07.955Z,101910.88
2022-08-01T22:14:14.973Z,101910.47
2022-08-01T22:19:43.757Z,101908.03
2022-08-01T22:24:42.316Z,101900.94
2022-08-01T22:29:47.315Z,101895.91
2022-08-01T22:34:50.323Z,101902.91
2022-08-01T22:39:53.357Z,101901.84
2022-08-01T22:45:03.836Z,101863.94
2022-08-01T22:50:08.455Z,101889.53
2022-08-01T22:55:12.335Z,101893.13
2022-08-01T23:00:17.081Z,101882.84
2022-08-01T23:05:22.706Z,101889.22
2022-08-01T23:10:26.866Z,101879.84
2022-08-01T23:15:31.608Z,101889.06
2022-08-01T23:20:35.368Z,101886.44
2022-08-01T23:25:38.628Z,101881.78
2022-08-01T23:30:42.962Z,101884.19
2022-08-01T23:35:46.064Z,101853.56
2022-08-01T23:40:50.085Z,101881.25
2022-08-01T23:46:02.542Z,101883.25
2022-08-01T23:51:09.457Z,101873.78
2022-08-01T23:56:16.878Z,101872.13
